Time;durP1;ratioP1;P1;durP2;ratioP2;P2;SDS_P1;SDS_P2;PMS_P1;PMS_P2;Temp;Humidity;BMP_temperature;BMP_pressure;BME280_temperature;BME280_humidity;BME280_pressure;Samples;Min_cycle;Max_cycle;Signal;HPM_P1;HPM_P2
2021/12/27 00:00:15;;;;;;;53.70;22.17;;;1.10;99.90;;;;;;4937354;29;20461;-77
2021/12/27 00:02:41;;;;;;;55.23;21.73;;;1.10;99.90;;;;;;4929125;29;20458;-77
2021/12/27 00:05:10;;;;;;;57.63;23.23;;;1.10;99.90;;;;;;4925502;29;20467;-77
2021/12/27 00:07:36;;;;;;;61.63;23.57;;;1.10;99.90;;;;;;4936493;29;20461;-77
2021/12/27 00:10:04;;;;;;;53.40;23.77;;;1.00;99.90;;;;;;4935590;29;20509;-78
2021/12/27 00:12:31;;;;;;;67.97;26.93;;;1.00;99.90;;;;;;4940620;29;20492;-77
2021/12/27 00:14:59;;;;;;;62.47;24.47;;;1.00;99.90;;;;;;4952752;29;20958;-77
2021/12/27 00:17:25;;;;;;;62.63;24.27;;;0.90;99.90;;;;;;4933005;29;21156;-77
2021/12/27 00:19:52;;;;;;;61.43;23.10;;;0.90;99.90;;;;;;4945352;29;20461;-77
2021/12/27 00:22:19;;;;;;;61.30;23.47;;;1.00;99.90;;;;;;4935002;29;20459;-78
2021/12/27 00:24:47;;;;;;;55.73;23.40;;;1.10;99.90;;;;;;4937691;29;20458;-77
2021/12/27 00:27:14;;;;;;;52.37;21.60;;;1.00;99.90;;;;;;4946379;29;20596;-77
2021/12/27 00:29:41;;;;;;;55.03;22.07;;;1.00;99.90;;;;;;4941643;29;20891;-78
2021/12/27 00:32:10;;;;;;;63.07;23.03;;;1.00;99.90;;;;;;4950735;29;20481;-77
2021/12/27 00:34:37;;;;;;;60.57;24.50;;;1.00;99.90;;;;;;4946163;29;20472;-78
2021/12/27 00:37:04;;;;;;;60.07;23.37;;;1.00;99.90;;;;;;4934779;29;20588;-77
2021/12/27 00:39:31;;;;;;;58.73;23.77;;;1.00;99.90;;;;;;4948995;28;20454;-77
2021/12/27 00:41:57;;;;;;;58.63;22.83;;;1.00;99.90;;;;;;4937144;29;20485;-78
2021/12/27 00:44:24;;;;;;;58.30;24.10;;;1.00;99.90;;;;;;4938272;29;20462;-78
2021/12/27 00:46:51;;;;;;;64.87;25.23;;;1.00;99.90;;;;;;4941713;29;20477;-77
2021/12/27 00:49:19;;;;;;;55.63;22.47;;;1.00;99.90;;;;;;4955715;29;20465;-77
2021/12/27 00:51:45;;;;;;;54.93;22.37;;;1.10;99.90;;;;;;4937142;29;20454;-78
2021/12/27 00:54:12;;;;;;;58.97;22.80;;;1.00;99.90;;;;;;4936534;29;20881;-78
2021/12/27 00:56:39;;;;;;;53.60;22.30;;;0.90;99.90;;;;;;4942647;29;20477;-78
2021/12/27 00:59:06;;;;;;;67.20;24.47;;;0.90;99.90;;;;;;4936708;29;20880;-78
2021/12/27 01:01:33;;;;;;;50.70;22.67;;;1.00;99.90;;;;;;4935089;29;20466;-78
2021/12/27 01:04:00;;;;;;;65.30;25.13;;;0.90;99.90;;;;;;4935998;29;20797;-77
2021/12/27 01:06:28;;;;;;;61.43;24.57;;;0.90;99.90;;;;;;4930881;29;20484;-78
2021/12/27 01:08:55;;;;;;;62.90;25.10;;;0.90;99.90;;;;;;4954599;29;20611;-77
2021/12/27 01:11:27;;;;;;;64.80;24.80;;;0.90;99.90;;;;;;4940660;29;20493;-77
2021/12/27 01:14:03;;;;;;;61.57;25.13;;;0.90;99.90;;;;;;4933109;29;21017;-77
2021/12/27 01:16:31;;;;;;;64.90;25.00;;;0.90;99.90;;;;;;4930514;29;20563;-77
2021/12/27 01:18:57;;;;;;;65.90;24.40;;;0.90;99.90;;;;;;4935486;29;20454;-77
2021/12/27 01:21:26;;;;;;;61.43;24.27;;;0.90;99.90;;;;;;4937513;29;20956;-77
2021/12/27 01:23:55;;;;;;;52.23;22.53;;;0.90;99.90;;;;;;4954346;29;20452;-77
2021/12/27 01:26:25;;;;;;;61.33;24.30;;;0.90;99.90;;;;;;4947729;29;20864;-77
2021/12/27 01:28:52;;;;;;;54.17;23.10;;;0.90;99.90;;;;;;4941612;29;20517;-77
2021/12/27 01:31:19;;;;;;;55.30;22.60;;;0.90;99.90;;;;;;4925076;29;20454;-77
2021/12/27 01:33:47;;;;;;;57.33;23.30;;;0.90;99.90;;;;;;4949539;29;20489;-77
2021/12/27 01:36:14;;;;;;;50.03;21.90;;;0.90;99.90;;;;;;4936181;29;21000;-77
2021/12/27 01:38:41;;;;;;;64.57;25.30;;;0.80;99.90;;;;;;4953182;29;20461;-77
2021/12/27 01:41:12;;;;;;;65.77;27.13;;;0.80;99.90;;;;;;4953446;29;20464;-77
2021/12/27 01:43:39;;;;;;;62.67;27.40;;;0.80;99.90;;;;;;4952768;29;20524;-77
2021/12/27 01:46:10;;;;;;;59.40;26.13;;;0.80;99.90;;;;;;4944999;29;20477;-77
2021/12/27 01:48:39;;;;;;;62.87;25.30;;;0.70;99.90;;;;;;4953458;29;20511;-77
2021/12/27 01:51:08;;;;;;;57.67;25.47;;;0.80;99.90;;;;;;4941412;28;20470;-77
2021/12/27 01:53:36;;;;;;;62.83;23.83;;;0.80;99.90;;;;;;4950843;29;20492;-77
2021/12/27 01:56:05;;;;;;;58.13;23.47;;;0.80;99.90;;;;;;4941750;29;21028;-77
2021/12/27 01:58:34;;;;;;;59.30;24.23;;;0.90;99.90;;;;;;4935116;29;20504;-77
2021/12/27 02:01:04;;;;;;;58.73;23.57;;;0.90;99.90;;;;;;4929993;29;20555;-77
2021/12/27 02:03:33;;;;;;;53.60;21.90;;;0.90;99.90;;;;;;4948131;29;20508;-77
2021/12/27 02:06:00;;;;;;;57.93;24.30;;;0.90;99.90;;;;;;4944093;29;20482;-77
2021/12/27 02:08:28;;;;;;;56.40;24.40;;;0.80;99.90;;;;;;4934613;29;20513;-77
2021/12/27 02:10:55;;;;;;;53.50;23.60;;;0.90;99.90;;;;;;4942814;29;20457;-77
2021/12/27 02:13:23;;;;;;;56.80;24.23;;;0.80;99.90;;;;;;4940980;29;20540;-77
2021/12/27 02:15:51;;;;;;;57.30;23.80;;;0.90;99.90;;;;;;4929167;29;20477;-77
2021/12/27 02:18:18;;;;;;;53.87;22.07;;;0.90;99.90;;;;;;4928837;29;20532;-77
2021/12/27 02:20:47;;;;;;;60.60;24.40;;;0.80;99.90;;;;;;4930227;29;20510;-77
2021/12/27 02:23:16;;;;;;;58.83;24.20;;;0.90;99.90;;;;;;4937949;29;20516;-77
2021/12/27 02:25:45;;;;;;;55.83;24.43;;;0.90;99.90;;;;;;4934515;29;20566;-77
2021/12/27 02:28:12;;;;;;;63.70;25.50;;;0.90;99.90;;;;;;4932654;29;20965;-77
2021/12/27 02:30:41;;;;;;;60.23;25.20;;;0.90;99.90;;;;;;4929767;29;20533;-77
2021/12/27 02:33:09;;;;;;;64.37;25.53;;;0.80;99.90;;;;;;4944631;29;20516;-77
2021/12/27 02:35:38;;;;;;;60.03;25.37;;;0.80;99.90;;;;;;4933043;29;20481;-77
2021/12/27 02:38:08;;;;;;;63.03;25.77;;;0.80;99.90;;;;;;4934396;29;20461;-77
2021/12/27 02:40:35;;;;;;;64.90;25.27;;;0.90;99.90;;;;;;4926991;29;20516;-77
2021/12/27 02:43:06;;;;;;;67.37;26.27;;;0.90;99.90;;;;;;4943036;29;21012;-77
2021/12/27 02:45:35;;;;;;;72.43;26.87;;;0.90;99.90;;;;;;4946846;29;20474;-77
2021/12/27 02:48:03;;;;;;;72.13;28.20;;;0.90;99.90;;;;;;4918338;29;20470;-78
2021/12/27 02:50:31;;;;;;;68.77;25.07;;;0.90;99.90;;;;;;4934173;29;20466;-77
2021/12/27 02:52:58;;;;;;;66.90;28.37;;;0.90;99.90;;;;;;4932927;29;20543;-77
2021/12/27 02:55:27;;;;;;;74.03;27.20;;;0.90;99.90;;;;;;4952791;29;20469;-77
2021/12/27 02:57:54;;;;;;;72.77;27.60;;;0.90;99.90;;;;;;4931572;29;20466;-77
2021/12/27 03:00:23;;;;;;;78.53;27.73;;;0.80;99.90;;;;;;4948580;29;20461;-77
2021/12/27 03:02:51;;;;;;;75.60;26.73;;;0.90;99.90;;;;;;4932291;29;20461;-78
2021/12/27 03:05:20;;;;;;;66.23;25.30;;;0.90;99.90;;;;;;4941390;29;21041;-78
2021/12/27 03:07:48;;;;;;;67.13;25.43;;;1.00;99.90;;;;;;4923859;29;20459;-77
2021/12/27 03:10:19;;;;;;;74.17;25.40;;;0.90;99.90;;;;;;4922824;29;20465;-77
2021/12/27 03:12:48;;;;;;;83.93;26.53;;;1.00;99.90;;;;;;4945006;29;20480;-77
2021/12/27 03:15:17;;;;;;;66.13;24.90;;;1.00;99.90;;;;;;4945153;29;20743;-77
2021/12/27 03:17:45;;;;;;;100.37;28.43;;;1.00;99.90;;;;;;4919538;29;20475;-77
2021/12/27 03:20:14;;;;;;;80.53;26.70;;;1.00;99.90;;;;;;4922235;29;20525;-77
2021/12/27 03:22:41;;;;;;;100.90;26.87;;;1.10;99.90;;;;;;4945507;29;20456;-77
2021/12/27 03:25:09;;;;;;;70.90;24.13;;;1.00;99.90;;;;;;4957363;29;20457;-77
2021/12/27 03:27:36;;;;;;;146.13;27.07;;;1.00;99.90;;;;;;4957045;29;20460;-78
2021/12/27 03:30:07;;;;;;;76.90;23.83;;;1.10;99.90;;;;;;4939109;29;20462;-78
2021/12/27 03:32:36;;;;;;;126.67;23.97;;;1.00;99.90;;;;;;4945814;29;20519;-77
2021/12/27 03:35:09;;;;;;;59.97;23.13;;;1.00;99.90;;;;;;4957451;29;20543;-77
2021/12/27 03:37:37;;;;;;;60.93;23.17;;;1.00;99.90;;;;;;4938296;29;20489;-77
2021/12/27 03:40:05;;;;;;;59.63;23.47;;;1.00;99.90;;;;;;4938660;29;20485;-77
2021/12/27 03:42:32;;;;;;;58.13;22.83;;;1.10;99.90;;;;;;4945193;29;20457;-78
2021/12/27 03:44:58;;;;;;;163.50;25.93;;;1.10;99.90;;;;;;4957385;29;20452;-78
2021/12/27 03:47:26;;;;;;;145.37;26.67;;;1.10;99.90;;;;;;4925229;29;20950;-77
2021/12/27 03:49:53;;;;;;;92.17;26.03;;;1.10;99.90;;;;;;4937703;29;20508;-77
2021/12/27 03:52:20;;;;;;;158.73;24.30;;;1.10;99.90;;;;;;4936452;29;20457;-77
2021/12/27 03:54:46;;;;;;;64.97;23.40;;;1.10;99.90;;;;;;4937422;29;20481;-77
2021/12/27 03:57:14;;;;;;;106.30;21.80;;;1.10;99.90;;;;;;4937098;29;20489;-78
2021/12/27 03:59:53;;;;;;;161.43;23.57;;;1.20;99.90;;;;;;4937572;29;20489;-77
2021/12/27 04:02:20;;;;;;;274.07;25.37;;;1.20;99.90;;;;;;4942425;29;20475;-77
2021/12/27 04:04:48;;;;;;;259.40;25.90;;;1.20;99.90;;;;;;4941505;29;20450;-77
2021/12/27 04:07:15;;;;;;;131.00;23.20;;;1.10;99.90;;;;;;4930822;29;20478;-78
2021/12/27 04:09:41;;;;;;;77.30;23.00;;;1.10;99.90;;;;;;4937807;29;20465;-77
2021/12/27 04:12:09;;;;;;;67.53;22.07;;;1.10;99.90;;;;;;4946316;29;20461;-77
2021/12/27 04:14:36;;;;;;;93.43;21.50;;;1.10;99.90;;;;;;4955418;28;21014;-77
2021/12/27 04:17:02;;;;;;;217.37;25.00;;;1.10;99.90;;;;;;4939995;29;20896;-77
2021/12/27 04:19:29;;;;;;;131.43;22.67;;;1.20;99.90;;;;;;4937907;29;20470;-77
2021/12/27 04:21:57;;;;;;;189.07;22.80;;;1.20;99.90;;;;;;4939614;29;20454;-77
2021/12/27 04:24:24;;;;;;;114.87;22.57;;;1.10;99.90;;;;;;4939857;29;20512;-78
2021/12/27 04:26:51;;;;;;;175.73;22.87;;;1.10;99.90;;;;;;4951059;29;20540;-78
2021/12/27 04:29:17;;;;;;;247.13;26.33;;;1.20;99.90;;;;;;4955584;29;20453;-77
2021/12/27 04:31:44;;;;;;;184.17;22.83;;;1.10;99.90;;;;;;4939397;29;20504;-77
2021/12/27 04:34:11;;;;;;;286.80;25.20;;;1.10;99.90;;;;;;4953741;29;20485;-77
2021/12/27 04:36:37;;;;;;;123.73;22.13;;;1.10;99.90;;;;;;4981732;23;20636;-73
2021/12/27 04:39:07;;;;;;;196.10;27.50;;;1.10;99.90;;;;;;4973402;28;20452;-74
2021/12/27 04:41:35;;;;;;;165.70;24.83;;;1.10;99.90;;;;;;4969046;28;20484;-73
2021/12/27 04:44:01;;;;;;;244.63;25.30;;;1.10;99.90;;;;;;4955067;29;20441;-74
2021/12/27 04:46:28;;;;;;;274.90;27.27;;;1.10;99.90;;;;;;4959545;28;20476;-75
2021/12/27 04:48:55;;;;;;;200.60;23.27;;;1.10;99.90;;;;;;4974768;28;20460;-74
2021/12/27 04:51:22;;;;;;;277.90;26.40;;;1.10;99.90;;;;;;4956944;28;20523;-73
2021/12/27 04:53:49;;;;;;;274.57;25.40;;;1.20;99.90;;;;;;4956440;28;20484;-73
2021/12/27 04:56:18;;;;;;;181.83;21.50;;;1.10;99.90;;;;;;4955122;28;20548;-74
2021/12/27 04:58:46;;;;;;;61.80;20.37;;;1.10;99.90;;;;;;4972182;28;20488;-74
2021/12/27 05:01:13;;;;;;;115.37;21.70;;;1.10;99.90;;;;;;4973353;28;20539;-73
2021/12/27 05:03:40;;;;;;;128.97;23.00;;;1.10;99.90;;;;;;4973768;28;20511;-74
2021/12/27 05:06:08;;;;;;;159.63;24.20;;;1.30;99.90;;;;;;4973850;28;20898;-73
2021/12/27 05:08:35;;;;;;;152.83;19.90;;;1.20;99.90;;;;;;4973802;28;20460;-74
2021/12/27 05:11:01;;;;;;;118.93;19.87;;;1.20;99.90;;;;;;4969607;28;20500;-73
2021/12/27 05:13:31;;;;;;;123.47;20.23;;;1.20;99.90;;;;;;4955766;28;20520;-73
2021/12/27 05:15:59;;;;;;;190.20;21.67;;;1.20;99.90;;;;;;4973578;28;20538;-74
2021/12/27 05:18:26;;;;;;;197.17;21.33;;;1.30;99.90;;;;;;4970606;28;20544;-74
2021/12/27 05:20:53;;;;;;;67.00;19.40;;;1.30;99.90;;;;;;4957729;28;20579;-73
2021/12/27 05:23:20;;;;;;;84.47;19.43;;;1.30;99.90;;;;;;4970630;28;20457;-73
2021/12/27 05:25:47;;;;;;;59.10;20.00;;;1.30;99.90;;;;;;4953208;28;20969;-74
2021/12/27 05:28:14;;;;;;;220.70;20.37;;;1.30;99.90;;;;;;4967969;28;20456;-74
2021/12/27 05:30:43;;;;;;;235.07;23.67;;;1.30;99.90;;;;;;4971924;28;20515;-74
2021/12/27 05:33:10;;;;;;;157.03;20.10;;;1.30;99.90;;;;;;4963575;28;20454;-73
2021/12/27 05:35:37;;;;;;;197.43;19.90;;;1.30;99.90;;;;;;4965707;28;20460;-73
2021/12/27 05:38:03;;;;;;;247.47;22.53;;;1.30;99.90;;;;;;4956922;28;20501;-74
2021/12/27 05:40:30;;;;;;;173.90;20.20;;;1.40;99.90;;;;;;4957936;28;21028;-74
2021/12/27 05:42:57;;;;;;;241.33;20.00;;;1.40;99.90;;;;;;4973529;28;20519;-74
2021/12/27 05:45:23;;;;;;;298.23;23.07;;;1.30;99.90;;;;;;4963901;28;20504;-73
2021/12/27 05:47:52;;;;;;;213.80;20.50;;;1.30;99.90;;;;;;4973934;28;20503;-73
2021/12/27 05:50:19;;;;;;;381.77;23.73;;;1.30;99.90;;;;;;4971320;28;20464;-74
2021/12/27 05:52:46;;;;;;;241.93;23.07;;;1.30;99.90;;;;;;4954633;28;20461;-73
2021/12/27 05:55:13;;;;;;;222.17;23.60;;;1.30;99.90;;;;;;4963928;28;20550;-74
2021/12/27 05:57:40;;;;;;;217.53;21.83;;;1.30;99.90;;;;;;4964262;28;20484;-74
2021/12/27 06:00:09;;;;;;;165.90;19.40;;;1.40;99.90;;;;;;4959293;28;20510;-74
2021/12/27 06:02:36;;;;;;;238.63;20.60;;;1.30;99.90;;;;;;4956366;28;20457;-74
2021/12/27 06:05:05;;;;;;;191.87;20.73;;;1.40;99.90;;;;;;4954231;28;20987;-75
2021/12/27 06:07:31;;;;;;;182.60;19.70;;;1.30;99.90;;;;;;4973006;28;20480;-74
2021/12/27 06:09:58;;;;;;;214.77;20.67;;;1.40;99.90;;;;;;4972794;28;20460;-74
2021/12/27 06:12:25;;;;;;;130.90;15.90;;;1.40;99.90;;;;;;4966172;28;20579;-74
2021/12/27 06:14:51;;;;;;;175.70;19.03;;;1.40;99.90;;;;;;4973103;28;20483;-74
2021/12/27 06:17:18;;;;;;;152.03;17.77;;;1.40;99.90;;;;;;4960890;28;20468;-73
2021/12/27 06:19:45;;;;;;;92.40;16.63;;;1.40;99.90;;;;;;4968687;28;20602;-74
2021/12/27 06:22:13;;;;;;;79.40;16.00;;;1.40;99.90;;;;;;4972201;28;20580;-73
2021/12/27 06:24:40;;;;;;;120.97;17.70;;;1.40;99.90;;;;;;4972618;28;20452;-74
2021/12/27 06:27:06;;;;;;;62.20;17.17;;;1.40;99.90;;;;;;4962968;28;20475;-74
2021/12/27 06:29:33;;;;;;;123.67;19.73;;;1.40;99.90;;;;;;4972903;28;20487;-73
2021/12/27 06:32:00;;;;;;;91.20;16.43;;;1.40;99.90;;;;;;4972031;28;21023;-74
2021/12/27 06:34:26;;;;;;;52.40;16.87;;;1.40;99.90;;;;;;4975130;28;20484;-74
2021/12/27 06:36:53;;;;;;;82.60;16.30;;;1.50;99.90;;;;;;4971260;28;21090;-74
2021/12/27 06:39:21;;;;;;;73.17;16.87;;;1.50;99.90;;;;;;4966395;28;20464;-74
2021/12/27 06:41:48;;;;;;;94.30;16.53;;;1.60;99.90;;;;;;4958568;28;20580;-74
2021/12/27 06:44:14;;;;;;;186.80;20.80;;;1.60;99.90;;;;;;4954814;28;20512;-74
2021/12/27 06:46:41;;;;;;;207.80;19.97;;;1.60;99.90;;;;;;4971617;28;20534;-73
2021/12/27 06:49:08;;;;;;;131.80;18.87;;;1.60;99.90;;;;;;4965174;28;20511;-74
2021/12/27 06:51:34;;;;;;;53.47;14.83;;;1.60;99.90;;;;;;4953975;29;20452;-73
2021/12/27 06:54:01;;;;;;;49.00;15.53;;;1.60;99.90;;;;;;4954547;28;20559;-73
2021/12/27 06:56:30;;;;;;;35.97;13.80;;;1.60;99.90;;;;;;4961104;28;20483;-73
2021/12/27 06:58:56;;;;;;;108.03;18.23;;;1.60;99.90;;;;;;4971894;28;20504;-74
2021/12/27 07:01:23;;;;;;;91.53;17.40;;;1.60;99.90;;;;;;4972640;28;20819;-73
2021/12/27 07:03:50;;;;;;;178.03;18.17;;;1.70;99.90;;;;;;4972794;28;20452;-74
2021/12/27 07:06:16;;;;;;;47.20;14.93;;;1.60;99.90;;;;;;4964137;28;20471;-73
2021/12/27 07:08:43;;;;;;;128.93;17.43;;;1.70;99.90;;;;;;4972924;28;20482;-74
2021/12/27 07:11:10;;;;;;;253.70;22.00;;;1.70;99.90;;;;;;4971052;28;20467;-74
2021/12/27 07:13:38;;;;;;;272.97;22.20;;;1.70;99.90;;;;;;4972077;28;20511;-73
2021/12/27 07:16:05;;;;;;;214.80;20.27;;;1.70;99.90;;;;;;4967981;28;20847;-75
2021/12/27 07:18:32;;;;;;;278.30;22.97;;;1.60;99.90;;;;;;4972461;28;20519;-75
2021/12/27 07:20:58;;;;;;;172.57;18.77;;;1.70;99.90;;;;;;4964499;28;20527;-75
2021/12/27 07:23:25;;;;;;;205.20;19.70;;;1.60;99.90;;;;;;4953555;28;20610;-75
2021/12/27 07:25:52;;;;;;;283.33;20.97;;;1.70;99.90;;;;;;4964759;28;20511;-75
2021/12/27 07:28:19;;;;;;;194.30;19.80;;;1.70;99.90;;;;;;4966722;28;20806;-75
2021/12/27 07:30:47;;;;;;;287.70;22.07;;;1.70;99.90;;;;;;4968014;28;20911;-75
2021/12/27 07:33:14;;;;;;;166.23;18.63;;;1.70;99.90;;;;;;4966761;28;20513;-75
2021/12/27 07:35:41;;;;;;;76.67;16.67;;;1.60;99.90;;;;;;4991002;28;21189;-75
2021/12/27 07:38:08;;;;;;;197.03;19.77;;;1.70;99.90;;;;;;4961598;28;20896;-76
2021/12/27 07:40:35;;;;;;;94.70;17.27;;;1.70;99.90;;;;;;4962607;28;20506;-75
2021/12/27 07:43:01;;;;;;;241.07;21.10;;;1.70;99.90;;;;;;4969549;28;20464;-75
2021/12/27 07:45:28;;;;;;;46.97;16.33;;;1.80;99.90;;;;;;4971140;28;20448;-74
2021/12/27 07:47:56;;;;;;;177.67;19.90;;;1.80;99.90;;;;;;4966402;28;21042;-75
2021/12/27 07:50:23;;;;;;;174.30;18.27;;;1.80;99.90;;;;;;4974317;28;20498;-75
2021/12/27 07:52:50;;;;;;;102.10;17.60;;;1.80;99.90;;;;;;4978345;28;20452;-75
2021/12/27 07:55:17;;;;;;;126.00;17.20;;;1.90;99.90;;;;;;4972717;28;20612;-75
2021/12/27 07:57:44;;;;;;;70.10;18.27;;;1.90;99.90;;;;;;4964923;28;20476;-74
2021/12/27 08:00:12;;;;;;;62.40;16.87;;;1.90;99.90;;;;;;4974513;28;20464;-75
2021/12/27 08:02:39;;;;;;;109.87;18.40;;;1.90;99.90;;;;;;4975547;28;20456;-74
2021/12/27 08:05:07;;;;;;;80.13;17.30;;;1.90;99.90;;;;;;4974820;28;20507;-75
2021/12/27 08:07:34;;;;;;;85.20;18.50;;;1.90;99.90;;;;;;4973793;28;20530;-74
2021/12/27 08:10:01;;;;;;;176.17;20.50;;;2.00;99.90;;;;;;4972074;28;20467;-75
2021/12/27 08:12:28;;;;;;;68.33;18.30;;;2.00;99.90;;;;;;4965072;28;20523;-74
2021/12/27 08:14:57;;;;;;;56.60;17.73;;;2.00;99.90;;;;;;4971198;28;20496;-74
2021/12/27 08:17:24;;;;;;;72.03;20.03;;;2.00;99.90;;;;;;4966196;28;20826;-74
2021/12/27 08:19:51;;;;;;;188.33;23.47;;;2.00;99.90;;;;;;4956858;28;20461;-74
2021/12/27 08:22:19;;;;;;;135.80;21.40;;;2.10;99.90;;;;;;4973088;28;20456;-74
2021/12/27 08:24:45;;;;;;;199.33;21.43;;;2.10;99.90;;;;;;4970692;28;20456;-74
2021/12/27 08:27:12;;;;;;;62.67;21.17;;;2.10;99.90;;;;;;4965657;28;20479;-74
2021/12/27 08:29:39;;;;;;;217.73;23.17;;;2.10;99.90;;;;;;4973364;28;20456;-73
2021/12/27 08:32:06;;;;;;;171.80;23.80;;;2.10;99.90;;;;;;4984702;28;20478;-74
2021/12/27 08:34:33;;;;;;;143.27;20.60;;;2.10;99.90;;;;;;4978025;28;20559;-75
2021/12/27 08:37:00;;;;;;;147.97;20.60;;;2.10;99.90;;;;;;4986091;28;20483;-75
2021/12/27 08:39:28;;;;;;;185.47;23.80;;;2.20;99.90;;;;;;4961438;28;20456;-75
2021/12/27 08:41:55;;;;;;;153.07;23.23;;;2.20;99.90;;;;;;4974562;28;20503;-74
2021/12/27 08:44:21;;;;;;;210.40;24.17;;;2.20;99.90;;;;;;4969758;28;20556;-75
2021/12/27 08:46:48;;;;;;;67.90;20.90;;;2.20;99.90;;;;;;4966739;28;20484;-75
2021/12/27 08:49:15;;;;;;;167.03;22.87;;;2.20;99.90;;;;;;4962386;28;20448;-76
2021/12/27 08:51:42;;;;;;;143.40;21.83;;;2.30;99.90;;;;;;4973326;28;20461;-75
2021/12/27 08:54:08;;;;;;;204.47;22.97;;;2.30;99.90;;;;;;4965508;28;20479;-74
2021/12/27 08:56:38;;;;;;;131.90;20.17;;;2.30;99.90;;;;;;4963788;28;21048;-74
2021/12/27 08:59:05;;;;;;;96.77;19.27;;;2.30;99.90;;;;;;4970558;28;20883;-74
2021/12/27 09:01:33;;;;;;;143.73;21.97;;;2.30;99.90;;;;;;4971201;28;20474;-74
2021/12/27 09:03:59;;;;;;;155.53;22.00;;;2.30;99.90;;;;;;4968630;28;20459;-74
2021/12/27 09:06:26;;;;;;;182.10;23.43;;;2.30;99.90;;;;;;4973266;28;20468;-74
2021/12/27 09:08:53;;;;;;;62.23;21.47;;;2.30;99.90;;;;;;4959950;28;21028;-74
2021/12/27 09:11:19;;;;;;;77.67;20.00;;;2.30;99.90;;;;;;4975188;28;20505;-74
2021/12/27 09:13:47;;;;;;;83.50;19.63;;;2.40;99.90;;;;;;4966602;28;20456;-74
2021/12/27 09:16:14;;;;;;;68.10;20.70;;;2.40;99.90;;;;;;4970914;28;20918;-76
2021/12/27 09:18:41;;;;;;;70.20;21.13;;;2.50;99.90;;;;;;4969062;28;20456;-75
2021/12/27 09:21:08;;;;;;;74.50;21.30;;;2.50;99.90;;;;;;4973088;28;20966;-75
2021/12/27 09:23:34;;;;;;;70.20;21.93;;;2.50;99.90;;;;;;4969486;28;20487;-76
2021/12/27 09:26:01;;;;;;;105.87;23.17;;;2.50;99.90;;;;;;4973281;28;20472;-76
2021/12/27 09:28:28;;;;;;;110.57;23.87;;;2.60;99.90;;;;;;4982332;28;20961;-75
2021/12/27 09:30:56;;;;;;;92.73;22.97;;;2.60;99.90;;;;;;4960850;28;20463;-76
2021/12/27 09:33:23;;;;;;;95.67;22.57;;;2.60;99.90;;;;;;4978727;28;20447;-76
2021/12/27 09:35:50;;;;;;;106.90;24.00;;;2.60;99.90;;;;;;4977164;28;20480;-76
2021/12/27 09:38:17;;;;;;;122.47;24.50;;;2.60;99.90;;;;;;4962288;28;20820;-76
2021/12/27 09:40:44;;;;;;;136.07;27.77;;;2.60;99.90;;;;;;4957993;28;20460;-76
2021/12/27 09:43:11;;;;;;;131.10;26.07;;;2.60;99.90;;;;;;4967255;28;20464;-76
2021/12/27 09:45:38;;;;;;;84.70;25.83;;;2.60;99.90;;;;;;4964030;28;20452;-76
2021/12/27 09:48:06;;;;;;;112.20;26.83;;;2.70;99.90;;;;;;4972821;28;20483;-76
2021/12/27 09:50:37;;;;;;;96.20;24.93;;;2.70;99.90;;;;;;4973188;28;20540;-76
2021/12/27 09:53:04;;;;;;;92.47;24.03;;;2.70;99.90;;;;;;4970816;28;20848;-76
2021/12/27 09:55:31;;;;;;;84.40;24.13;;;2.70;99.90;;;;;;4972033;28;20995;-75
2021/12/27 09:57:59;;;;;;;92.17;25.67;;;2.80;99.90;;;;;;4965849;28;20563;-75
2021/12/27 10:00:27;;;;;;;66.27;23.43;;;2.80;99.90;;;;;;4973534;28;20546;-75
2021/12/27 10:02:56;;;;;;;63.73;22.87;;;2.80;99.90;;;;;;4972669;28;20882;-76
2021/12/27 10:05:25;;;;;;;133.50;23.10;;;2.80;99.90;;;;;;4963662;28;20540;-76
2021/12/27 10:07:53;;;;;;;123.83;23.17;;;2.90;99.90;;;;;;4953543;28;20477;-76
2021/12/27 10:10:19;;;;;;;63.60;21.17;;;2.80;99.90;;;;;;4962531;28;20511;-76
2021/12/27 10:12:47;;;;;;;205.90;27.60;;;2.90;99.90;;;;;;4962861;28;20456;-76
2021/12/27 10:15:16;;;;;;;136.37;23.20;;;2.90;99.90;;;;;;4954289;28;20540;-76
2021/12/27 10:17:43;;;;;;;197.30;25.43;;;2.80;99.90;;;;;;4971698;28;20464;-75
2021/12/27 10:20:13;;;;;;;211.60;24.97;;;2.80;99.90;;;;;;4972241;28;20460;-76
2021/12/27 10:22:44;;;;;;;152.50;24.00;;;2.80;99.90;;;;;;4969752;28;20452;-76
2021/12/27 10:25:14;;;;;;;102.53;25.83;;;2.70;99.90;;;;;;4963978;28;20444;-76
2021/12/27 10:27:41;;;;;;;89.47;22.50;;;2.70;99.90;;;;;;4975475;28;20900;-76
2021/12/27 10:30:14;;;;;;;79.03;23.70;;;2.80;99.90;;;;;;4972291;28;20510;-76
2021/12/27 10:32:41;;;;;;;112.40;21.97;;;2.80;99.90;;;;;;4967390;28;20453;-76
2021/12/27 10:35:09;;;;;;;94.00;23.93;;;2.80;99.90;;;;;;4969938;28;20865;-76
2021/12/27 10:37:37;;;;;;;125.13;30.97;;;2.80;99.90;;;;;;4966922;28;20496;-76
2021/12/27 10:40:07;;;;;;;96.30;24.43;;;2.80;99.90;;;;;;4965387;28;20472;-76
2021/12/27 10:42:36;;;;;;;92.47;22.23;;;2.80;99.90;;;;;;4971111;28;20484;-76
2021/12/27 10:45:05;;;;;;;70.77;22.50;;;2.80;99.90;;;;;;4970700;28;20980;-77
2021/12/27 10:47:38;;;;;;;65.30;22.13;;;2.80;99.90;;;;;;4970507;28;20483;-76
2021/12/27 10:50:14;;;;;;;71.30;23.73;;;2.90;99.90;;;;;;4955050;28;20484;-77
2021/12/27 10:52:47;;;;;;;80.00;24.07;;;2.90;99.90;;;;;;4959731;28;20463;-76
2021/12/27 10:55:17;;;;;;;95.50;29.63;;;3.00;99.90;;;;;;4962191;28;20496;-77
2021/12/27 10:57:44;;;;;;;67.27;24.00;;;3.00;99.90;;;;;;4967495;28;21050;-76
2021/12/27 11:00:26;;;;;;;70.90;23.67;;;3.00;99.90;;;;;;4957810;28;20460;-76
2021/12/27 11:02:53;;;;;;;65.20;22.97;;;3.10;99.90;;;;;;4973340;28;20460;-76
2021/12/27 11:05:23;;;;;;;73.27;22.30;;;3.10;99.90;;;;;;4962588;28;20465;-76
2021/12/27 11:07:50;;;;;;;83.73;23.87;;;3.20;99.90;;;;;;4954885;28;20485;-76
2021/12/27 11:10:20;;;;;;;64.17;24.47;;;3.20;99.90;;;;;;4968418;28;20460;-76
2021/12/27 11:12:47;;;;;;;72.47;23.97;;;3.40;99.90;;;;;;4991002;28;20537;-77
2021/12/27 11:15:14;;;;;;;66.37;22.93;;;3.40;99.90;;;;;;4989375;28;21010;-76
2021/12/27 11:17:41;;;;;;;74.53;23.23;;;3.40;99.90;;;;;;4967826;28;20546;-76
2021/12/27 11:20:10;;;;;;;60.50;21.40;;;3.40;99.90;;;;;;4960361;28;20452;-76
2021/12/27 11:22:38;;;;;;;59.70;23.77;;;3.50;99.90;;;;;;4961581;28;20534;-76
2021/12/27 11:25:07;;;;;;;65.13;21.80;;;3.50;99.90;;;;;;4958149;28;20491;-76
2021/12/27 11:27:36;;;;;;;56.93;19.80;;;3.50;99.90;;;;;;4979122;28;20487;-77
2021/12/27 11:30:08;;;;;;;64.87;21.70;;;3.50;99.90;;;;;;4969297;28;20853;-77
2021/12/27 11:32:34;;;;;;;61.43;21.73;;;3.40;99.90;;;;;;4967065;28;20463;-76
2021/12/27 11:35:08;;;;;;;65.23;22.30;;;3.40;99.90;;;;;;4959574;28;20882;-77
2021/12/27 11:37:37;;;;;;;63.80;22.00;;;3.40;99.90;;;;;;4959355;28;20557;-76
2021/12/27 11:40:09;;;;;;;51.70;21.53;;;3.40;99.90;;;;;;4959667;28;20482;-77
2021/12/27 11:42:57;;;;;;;66.20;22.30;;;3.40;99.90;;;;;;4970199;28;20578;-77
2021/12/27 11:45:43;;;;;;;59.77;22.73;;;3.50;99.90;;;;;;4959879;28;20511;-76
2021/12/27 11:48:11;;;;;;;53.07;22.53;;;3.50;99.90;;;;;;4975082;28;20455;-77
2021/12/27 11:51:05;;;;;;;70.37;24.13;;;3.50;99.90;;;;;;4976306;28;20446;-77
2021/12/27 11:53:33;;;;;;;64.47;22.03;;;3.50;99.90;;;;;;4966546;28;20456;-77
2021/12/27 11:56:01;;;;;;;64.80;23.07;;;3.60;99.90;;;;;;4962491;28;20496;-77
2021/12/27 11:58:35;;;;;;;62.23;22.93;;;3.60;99.90;;;;;;4958939;28;20571;-75
2021/12/27 12:01:03;;;;;;;61.10;23.57;;;3.70;99.90;;;;;;4964026;28;20482;-75
2021/12/27 12:03:42;;;;;;;60.00;21.53;;;3.70;99.90;;;;;;4965382;28;20508;-76
2021/12/27 12:06:39;;;;;;;51.70;21.87;;;3.70;99.90;;;;;;4968337;28;20560;-76
2021/12/27 12:09:11;;;;;;;56.10;22.93;;;3.80;99.90;;;;;;4960777;28;20465;-76
2021/12/27 12:11:38;;;;;;;51.10;21.93;;;3.80;99.90;;;;;;4969672;28;20459;-75
2021/12/27 12:14:25;;;;;;;49.97;22.13;;;3.90;99.90;;;;;;4971941;28;20940;-76
2021/12/27 12:16:53;;;;;;;75.50;25.83;;;3.90;99.90;;;;;;4958537;28;20536;-76
2021/12/27 12:19:39;;;;;;;60.77;23.63;;;3.90;99.90;;;;;;4956112;28;20950;-76
2021/12/27 12:22:07;;;;;;;56.40;21.23;;;3.90;99.90;;;;;;4986041;28;20455;-76
2021/12/27 12:24:34;;;;;;;57.10;23.17;;;3.90;99.90;;;;;;4970825;28;20869;-76
2021/12/27 12:27:04;;;;;;;52.27;22.57;;;3.90;99.90;;;;;;4969575;28;20529;-76
2021/12/27 12:29:39;;;;;;;54.57;21.47;;;3.90;99.90;;;;;;4980941;28;20444;-76
2021/12/27 12:32:08;;;;;;;57.93;22.00;;;3.90;99.90;;;;;;4973850;28;21180;-75
2021/12/27 12:34:36;;;;;;;50.70;20.53;;;3.90;99.90;;;;;;4969000;28;20966;-77
2021/12/27 12:37:05;;;;;;;65.73;22.60;;;4.00;99.90;;;;;;4973572;28;20496;-75